Logo AVAMET
Benvolgut visitant, si us plau, ingressa Recuperar contrasenya

Castelló de la Plana Port

Dades diàries. Acumulats / Últims 30 dies disponibles

Data Temperatura (°C) Humitat rel. (%) Pressió rel. (hPa) Vent (km/h) Precipitació
Mínima Mitjana Màxima Amplitud
tèrmica
Mínima Mitjana Màxima Mínima Mitjana Màxima Predom. Mitjana Ràfega
màxima
Total
(mm)
Índex-n
Mínima Mitjana Màxima Mínima Mitjana Màxima n
0 a 1
P0 max
mm 5'
Dades mensuals acumulades fins l'últim dia disponible
10/2019 14,4 19,1 22,4 21,9 19,7 24,0 27,4 13,0   13,0 74,0 0,8
Dades anuals acumulades fins l'últim dia disponible
2019 4,4 16,4 26,7 19,2 12,7 21,5 30,4 26,0   13,3 104,6 82,8
Últims 30 dies disponibles
21-10-2019 14,4     17,5     19,7 5,3 W 12,7 32,2 0,0
20-10-2019 15,7     19,6     21,6 5,9 SW 19,0 59,5 0,2
19-10-2019 18,0     22,3     27,4 9,4 SSE 17,9 62,8 0,0
18-10-2019 18,7     21,8     23,6 4,9 NE 12,6 33,8 0,0
17-10-2019 16,3     20,2     22,8 6,5 WNW 11,4 25,7 0,0
16-10-2019 16,2     19,8     23,0 6,8 W 14,3 40,2 0,0
15-10-2019 16,8     20,0     23,4 6,6 W 22,2 74,0 0,4
14-10-2019 20,6     22,5     24,7 4,1 WNW 11,6 46,7 0,2
13-10-2019 20,8     22,8     24,8 4,0 WNW 8,9 25,7 0,0
12-10-2019 21,4     23,2     24,3 2,9 ENE 11,7 33,8 0,0
11-10-2019 21,6     22,8     23,8 2,2 SE 11,7 38,6 0,0
10-10-2019 21,3     22,1     23,4 2,1 NE 17,9 46,7 0,0
09-10-2019 20,3     23,1     24,7 4,4 E 10,9 29,0 0,0
08-10-2019 18,7     22,3     24,3 5,6 WNW 12,6 32,2 0,0
07-10-2019 20,3     22,3     24,7 4,4 W 11,3 37,0 0,0
06-10-2019 19,4     22,4     24,6 5,2 WNW 8,2 25,7 0,0
05-10-2019 19,3     22,6     24,4 5,1 WNW 8,5 30,6 0,0
04-10-2019 18,3     22,3     24,7 6,4 W 11,6 30,6 0,0
03-10-2019 18,8     21,7     23,6 4,8 W 14,8 33,8 0,0
02-10-2019 22,4     24,4     26,4 4,0 NW 14,6 38,6 0,0
01-10-2019 21,5     23,6     25,1 3,6 W 8,5 25,7 0,0
30-09-2019 22,6     24,2     25,4 2,8 NE 13,7 32,2 0,0
29-09-2019 21,6     23,7     25,1 3,5 SE 9,3 29,0 0,0
28-09-2019 22,3     24,1     25,4 3,1 NE 9,0 27,4 0,0
27-09-2019 21,3     23,7     25,3 4,0 WNW 7,4 24,1 0,0
26-09-2019 19,9     23,3     25,0 5,1 SE 11,6 37,0 0,0
25-09-2019 21,9     24,2     26,3 4,4 ENE 12,2 35,4 0,0
24-09-2019 19,9     23,5     26,4 6,5 W 10,6 24,1 0,0
23-09-2019 20,3     23,3     25,1 4,8 W 12,6 30,6 0,0
22-09-2019 22,5     24,9     29,7 7,2 NNE 13,4 51,5 0,0
Últims 13 mesos disponibles
07/2019 22,3 24,1 26,2 26,3 25,8 27,7 29,6 7,3 NE 12,1 69,2 8,6
06/2019 14,2 19,5 23,0 21,6 19,8 23,3 28,9 14,7 NE 13,4 74,0 0,2
05/2019 11,7 15,6 18,3 18,0 16,7 20,0 27,4 15,7 NE 13,6 70,8 6,6
04/2019 9,7 13,0 14,9 15,3 14,4 17,5 22,1 12,4 NNE 19,2 78,9 16,2
03/2019 8,6 10,9 13,5 14,2 14,4 16,7 23,9 15,3 WNW 12,1 64,4 6,0
02/2019 6,1 8,6 12,1 12,0 12,7 14,7 18,7 12,6 WNW 10,9 93,3 0,4
01/2019 4,4 7,9 10,5 12,0 12,8 14,8 16,8 12,4 W 12,3 90,1 1,4
12/2018 5,9 10,4 13,5 13,9 13,3 16,9 20,1 14,2 WNW 8,5 75,6 4,0
11/2018 9,3 13,1 17,8 15,9 16,5 18,9 21,1 11,8 W 14,5 61,2 62,4
10/2018 10,1 16,8 20,7 19,8 15,4 22,3 26,3 16,2 WNW 14,4 80,5 89,6
09/2018 18,7 21,6 23,9 24,5 24,2 26,5 28,9 10,2 W 10,9 56,3 41,6
08/2018 21,0 24,0 27,6 26,5 25,8 28,4 32,8 11,8 ENE 11,3 85,3 7,2
07/2018 20,8 23,8 25,6 26,1 26,0 27,6 31,1 10,3 NE 11,1 53,1
Tots els anys disponibles
2017 5,9 12,5 20,8 15,9 11,6 18,8 24,7 18,8 12,2 93,3 12,2
2016 5,4 16,0 26,2 18,6 11,6 20,7 31,4 26,0 11,5 82,1 244,8
Temperatura (°C)
Humitat relativa (%)
Velocitat del vent i ràfega màxima (km/h)
Direcció del vent (°)
Pressió (hPa)
Precipitació (mm)
Nota sobre les dades: s'avisa a l'usuari de la provisionalitat i no oficialitat d'aquestes dades
Logo AVAMET blanc
Web allotjada a Sollutia
Llicència de Creative CommonsLa web d'AVAMET i els seus continguts estan subjectes a una llicència de
Reconeixement - No Comercial - Compartir igual
Últimes estacions: Sueca - Centre (Inforatge), Xàbia - La Plana (Soci), Banyeres de Mariola - Molí Sol (Soci), Villena - Villa Ventín (Soci), Benissa - Convent (Soci), Xàbia Fontanella (Soci), Castielfabib (Soci) --- Properes estacions: Villena - Serra de Salines (Soci) - - -